sensor_id;sensor_type;location;lat;lon;timestamp;temperature;humidity
21508;DHT22;10915;54.352;9.074;2023-05-10T00:01:07;13.90;99.90
21508;DHT22;10915;54.352;9.074;2023-05-10T00:03:33;13.90;99.90
21508;DHT22;10915;54.352;9.074;2023-05-10T00:05:58;13.90;99.90
21508;DHT22;10915;54.352;9.074;2023-05-10T00:08:24;13.90;99.90
21508;DHT22;10915;54.352;9.074;2023-05-10T00:10:50;13.90;99.90
21508;DHT22;10915;54.352;9.074;2023-05-10T00:13:15;14.00;99.90
21508;DHT22;10915;54.352;9.074;2023-05-10T00:15:41;14.00;99.90
21508;DHT22;10915;54.352;9.074;2023-05-10T00:18:07;13.90;99.90
21508;DHT22;10915;54.352;9.074;2023-05-10T00:20:32;13.90;99.90
21508;DHT22;10915;54.352;9.074;2023-05-10T00:22:58;13.80;99.90
21508;DHT22;10915;54.352;9.074;2023-05-10T00:25:24;13.90;99.90
21508;DHT22;10915;54.352;9.074;2023-05-10T00:27:50;13.80;99.90
21508;DHT22;10915;54.352;9.074;2023-05-10T00:30:15;13.80;99.90
21508;DHT22;10915;54.352;9.074;2023-05-10T00:32:41;13.70;99.90
21508;DHT22;10915;54.352;9.074;2023-05-10T00:35:07;13.80;99.90
21508;DHT22;10915;54.352;9.074;2023-05-10T00:37:33;13.70;99.90
21508;DHT22;10915;54.352;9.074;2023-05-10T00:39:59;13.70;99.90
21508;DHT22;10915;54.352;9.074;2023-05-10T00:42:24;13.70;99.90
21508;DHT22;10915;54.352;9.074;2023-05-10T00:44:50;13.70;99.90
21508;DHT22;10915;54.352;9.074;2023-05-10T00:47:16;13.60;99.90
21508;DHT22;10915;54.352;9.074;2023-05-10T00:49:42;13.60;99.90
21508;DHT22;10915;54.352;9.074;2023-05-10T00:52:09;13.60;99.90
21508;DHT22;10915;54.352;9.074;2023-05-10T00:54:35;13.60;99.90
21508;DHT22;10915;54.352;9.074;2023-05-10T00:57:01;13.50;99.90
21508;DHT22;10915;54.352;9.074;2023-05-10T00:59:26;13.40;99.90
21508;DHT22;10915;54.352;9.074;2023-05-10T01:01:52;13.40;99.90
21508;DHT22;10915;54.352;9.074;2023-05-10T01:04:18;13.40;99.90
21508;DHT22;10915;54.352;9.074;2023-05-10T01:06:47;13.30;99.90
21508;DHT22;10915;54.352;9.074;2023-05-10T01:09:12;13.30;99.90
21508;DHT22;10915;54.352;9.074;2023-05-10T01:11:38;13.30;99.90
21508;DHT22;10915;54.352;9.074;2023-05-10T01:14:05;13.30;99.90
21508;DHT22;10915;54.352;9.074;2023-05-10T01:16:34;13.20;99.90
21508;DHT22;10915;54.352;9.074;2023-05-10T01:19:01;13.20;99.90
21508;DHT22;10915;54.352;9.074;2023-05-10T01:27:24;13.00;99.90
21508;DHT22;10915;54.352;9.074;2023-05-10T01:32:43;12.90;99.90
21508;DHT22;10915;54.352;9.074;2023-05-10T01:46:38;12.60;99.90
21508;DHT22;10915;54.352;9.074;2023-05-10T01:49:47;12.50;99.90
21508;DHT22;10915;54.352;9.074;2023-05-10T01:52:17;12.50;99.90
21508;DHT22;10915;54.352;9.074;2023-05-10T01:55:05;12.50;99.90
21508;DHT22;10915;54.352;9.074;2023-05-10T01:57:34;12.40;99.90
21508;DHT22;10915;54.352;9.074;2023-05-10T02:00:02;12.40;99.90
21508;DHT22;10915;54.352;9.074;2023-05-10T02:02:37;12.40;99.90
21508;DHT22;10915;54.352;9.074;2023-05-10T02:05:05;12.30;99.90
21508;DHT22;10915;54.352;9.074;2023-05-10T02:07:32;12.30;99.90
21508;DHT22;10915;54.352;9.074;2023-05-10T02:10:00;12.30;99.90
21508;DHT22;10915;54.352;9.074;2023-05-10T02:12:27;12.30;99.90
21508;DHT22;10915;54.352;9.074;2023-05-10T02:14:54;12.20;99.90
21508;DHT22;10915;54.352;9.074;2023-05-10T02:17:21;12.20;99.90
21508;DHT22;10915;54.352;9.074;2023-05-10T02:19:48;12.20;99.90
21508;DHT22;10915;54.352;9.074;2023-05-10T02:22:16;12.10;99.90
21508;DHT22;10915;54.352;9.074;2023-05-10T02:24:43;12.10;99.90
21508;DHT22;10915;54.352;9.074;2023-05-10T02:27:10;11.90;99.90
21508;DHT22;10915;54.352;9.074;2023-05-10T02:29:37;11.90;99.90
21508;DHT22;10915;54.352;9.074;2023-05-10T02:32:03;11.80;99.90
21508;DHT22;10915;54.352;9.074;2023-05-10T02:34:29;11.80;99.90
21508;DHT22;10915;54.352;9.074;2023-05-10T02:36:56;11.70;99.90
21508;DHT22;10915;54.352;9.074;2023-05-10T02:39:22;11.70;99.90
21508;DHT22;10915;54.352;9.074;2023-05-10T02:41:50;11.70;99.90
21508;DHT22;10915;54.352;9.074;2023-05-10T02:44:18;11.70;99.90
21508;DHT22;10915;54.352;9.074;2023-05-10T02:46:45;11.60;99.90
21508;DHT22;10915;54.352;9.074;2023-05-10T02:49:11;11.60;99.90
21508;DHT22;10915;54.352;9.074;2023-05-10T02:51:40;11.60;99.90
21508;DHT22;10915;54.352;9.074;2023-05-10T02:54:13;11.50;99.90
21508;DHT22;10915;54.352;9.074;2023-05-10T02:56:45;11.50;99.90
21508;DHT22;10915;54.352;9.074;2023-05-10T02:59:12;11.50;99.90
21508;DHT22;10915;54.352;9.074;2023-05-10T03:01:38;11.40;99.90
21508;DHT22;10915;54.352;9.074;2023-05-10T03:04:03;11.40;99.90
21508;DHT22;10915;54.352;9.074;2023-05-10T03:06:29;11.40;99.90
21508;DHT22;10915;54.352;9.074;2023-05-10T03:08:55;11.40;99.90
21508;DHT22;10915;54.352;9.074;2023-05-10T03:11:43;11.40;99.90
21508;DHT22;10915;54.352;9.074;2023-05-10T03:14:26;11.40;99.90
21508;DHT22;10915;54.352;9.074;2023-05-10T03:19:47;11.30;99.90
21508;DHT22;10915;54.352;9.074;2023-05-10T03:22:32;11.20;99.90
21508;DHT22;10915;54.352;9.074;2023-05-10T03:25:00;11.20;99.90
21508;DHT22;10915;54.352;9.074;2023-05-10T03:27:32;11.10;99.90
21508;DHT22;10915;54.352;9.074;2023-05-10T03:29:58;11.00;99.90
21508;DHT22;10915;54.352;9.074;2023-05-10T03:32:25;10.90;99.90
21508;DHT22;10915;54.352;9.074;2023-05-10T03:34:52;11.00;99.90
21508;DHT22;10915;54.352;9.074;2023-05-10T03:37:18;11.00;99.90
21508;DHT22;10915;54.352;9.074;2023-05-10T03:39:43;11.00;99.90
21508;DHT22;10915;54.352;9.074;2023-05-10T03:42:09;11.00;99.90
21508;DHT22;10915;54.352;9.074;2023-05-10T03:44:38;11.00;99.90
21508;DHT22;10915;54.352;9.074;2023-05-10T03:47:04;11.00;99.90
21508;DHT22;10915;54.352;9.074;2023-05-10T03:49:29;11.00;99.90
21508;DHT22;10915;54.352;9.074;2023-05-10T03:51:55;11.00;99.90
21508;DHT22;10915;54.352;9.074;2023-05-10T03:54:21;11.00;99.90
21508;DHT22;10915;54.352;9.074;2023-05-10T03:56:47;11.00;99.90
21508;DHT22;10915;54.352;9.074;2023-05-10T03:59:13;11.00;99.90
21508;DHT22;10915;54.352;9.074;2023-05-10T04:01:39;11.00;99.90
21508;DHT22;10915;54.352;9.074;2023-05-10T04:04:04;11.00;99.90
21508;DHT22;10915;54.352;9.074;2023-05-10T04:06:30;11.00;99.90
21508;DHT22;10915;54.352;9.074;2023-05-10T04:08:56;10.90;99.90
21508;DHT22;10915;54.352;9.074;2023-05-10T04:11:25;11.00;99.90
21508;DHT22;10915;54.352;9.074;2023-05-10T04:13:50;10.90;99.90
21508;DHT22;10915;54.352;9.074;2023-05-10T04:16:16;11.00;99.90
21508;DHT22;10915;54.352;9.074;2023-05-10T04:18:42;11.00;99.90
21508;DHT22;10915;54.352;9.074;2023-05-10T04:21:14;11.00;99.90
21508;DHT22;10915;54.352;9.074;2023-05-10T04:23:40;11.00;99.90
21508;DHT22;10915;54.352;9.074;2023-05-10T04:26:06;11.10;99.90
21508;DHT22;10915;54.352;9.074;2023-05-10T04:28:32;11.10;99.90
21508;DHT22;10915;54.352;9.074;2023-05-10T04:31:04;11.20;99.90
21508;DHT22;10915;54.352;9.074;2023-05-10T04:33:31;11.30;99.90
21508;DHT22;10915;54.352;9.074;2023-05-10T04:35:56;11.40;99.90
21508;DHT22;10915;54.352;9.074;2023-05-10T04:38:22;11.40;99.90
21508;DHT22;10915;54.352;9.074;2023-05-10T04:40:48;11.60;99.90
21508;DHT22;10915;54.352;9.074;2023-05-10T04:43:13;11.70;99.90
21508;DHT22;10915;54.352;9.074;2023-05-10T04:45:39;11.80;99.90
21508;DHT22;10915;54.352;9.074;2023-05-10T04:48:05;11.80;99.90
21508;DHT22;10915;54.352;9.074;2023-05-10T04:50:31;11.90;99.90
21508;DHT22;10915;54.352;9.074;2023-05-10T04:52:57;11.90;99.90
21508;DHT22;10915;54.352;9.074;2023-05-10T04:55:22;11.90;99.90
21508;DHT22;10915;54.352;9.074;2023-05-10T04:57:48;12.00;99.90
21508;DHT22;10915;54.352;9.074;2023-05-10T05:00:14;12.00;99.90
21508;DHT22;10915;54.352;9.074;2023-05-10T05:02:43;12.10;99.90
21508;DHT22;10915;54.352;9.074;2023-05-10T05:05:09;12.20;99.90
21508;DHT22;10915;54.352;9.074;2023-05-10T05:07:35;12.20;99.90
21508;DHT22;10915;54.352;9.074;2023-05-10T05:10:00;12.30;99.90
21508;DHT22;10915;54.352;9.074;2023-05-10T05:12:26;12.20;99.90
21508;DHT22;10915;54.352;9.074;2023-05-10T05:14:51;12.20;99.90
21508;DHT22;10915;54.352;9.074;2023-05-10T05:17:17;12.20;99.90
21508;DHT22;10915;54.352;9.074;2023-05-10T05:19:42;12.20;99.90
21508;DHT22;10915;54.352;9.074;2023-05-10T05:22:08;12.30;99.90
21508;DHT22;10915;54.352;9.074;2023-05-10T05:24:37;12.40;99.90
21508;DHT22;10915;54.352;9.074;2023-05-10T05:27:06;12.60;99.90
21508;DHT22;10915;54.352;9.074;2023-05-10T05:29:32;12.70;99.90
21508;DHT22;10915;54.352;9.074;2023-05-10T05:31:57;12.70;99.90
21508;DHT22;10915;54.352;9.074;2023-05-10T05:34:23;12.80;99.90
21508;DHT22;10915;54.352;9.074;2023-05-10T05:36:49;12.80;99.90
21508;DHT22;10915;54.352;9.074;2023-05-10T05:39:15;12.90;99.90
21508;DHT22;10915;54.352;9.074;2023-05-10T05:41:41;12.90;99.90
21508;DHT22;10915;54.352;9.074;2023-05-10T05:44:07;13.10;99.90
21508;DHT22;10915;54.352;9.074;2023-05-10T05:46:33;13.10;99.90
21508;DHT22;10915;54.352;9.074;2023-05-10T05:48:59;13.10;99.90
21508;DHT22;10915;54.352;9.074;2023-05-10T05:51:24;13.30;99.90
21508;DHT22;10915;54.352;9.074;2023-05-10T05:53:50;13.40;99.90
21508;DHT22;10915;54.352;9.074;2023-05-10T05:56:16;13.50;99.90
21508;DHT22;10915;54.352;9.074;2023-05-10T05:58:42;13.70;99.90
21508;DHT22;10915;54.352;9.074;2023-05-10T06:01:08;13.70;99.90
21508;DHT22;10915;54.352;9.074;2023-05-10T06:03:34;13.80;99.90
21508;DHT22;10915;54.352;9.074;2023-05-10T06:06:00;13.80;99.90
21508;DHT22;10915;54.352;9.074;2023-05-10T06:08:25;13.90;99.90
21508;DHT22;10915;54.352;9.074;2023-05-10T06:10:51;13.90;99.90
21508;DHT22;10915;54.352;9.074;2023-05-10T06:13:17;14.10;99.90
21508;DHT22;10915;54.352;9.074;2023-05-10T06:15:42;14.30;99.90
21508;DHT22;10915;54.352;9.074;2023-05-10T06:18:08;14.50;99.90
21508;DHT22;10915;54.352;9.074;2023-05-10T06:20:34;14.70;99.90
21508;DHT22;10915;54.352;9.074;2023-05-10T06:23:00;14.90;99.90
21508;DHT22;10915;54.352;9.074;2023-05-10T06:25:25;15.00;99.90
21508;DHT22;10915;54.352;9.074;2023-05-10T06:27:51;15.20;99.90
21508;DHT22;10915;54.352;9.074;2023-05-10T06:30:22;15.40;99.90
21508;DHT22;10915;54.352;9.074;2023-05-10T06:32:52;15.50;99.90
21508;DHT22;10915;54.352;9.074;2023-05-10T06:35:19;15.60;99.90
21508;DHT22;10915;54.352;9.074;2023-05-10T06:37:44;15.60;99.90
21508;DHT22;10915;54.352;9.074;2023-05-10T06:40:10;15.50;99.90
21508;DHT22;10915;54.352;9.074;2023-05-10T06:42:36;15.40;99.90
21508;DHT22;10915;54.352;9.074;2023-05-10T06:45:02;15.40;99.90
21508;DHT22;10915;54.352;9.074;2023-05-10T06:47:28;15.50;99.90
21508;DHT22;10915;54.352;9.074;2023-05-10T06:49:53;15.50;99.90
21508;DHT22;10915;54.352;9.074;2023-05-10T06:52:19;15.60;99.90
21508;DHT22;10915;54.352;9.074;2023-05-10T06:54:45;15.70;99.90
21508;DHT22;10915;54.352;9.074;2023-05-10T06:57:10;15.80;99.90
21508;DHT22;10915;54.352;9.074;2023-05-10T06:59:44;15.80;99.90
21508;DHT22;10915;54.352;9.074;2023-05-10T07:02:21;15.90;99.90
21508;DHT22;10915;54.352;9.074;2023-05-10T07:04:51;15.80;99.90
21508;DHT22;10915;54.352;9.074;2023-05-10T07:07:17;15.80;99.90
21508;DHT22;10915;54.352;9.074;2023-05-10T07:09:43;15.90;99.90
21508;DHT22;10915;54.352;9.074;2023-05-10T07:12:10;16.00;99.90
21508;DHT22;10915;54.352;9.074;2023-05-10T07:14:35;16.10;99.90
21508;DHT22;10915;54.352;9.074;2023-05-10T07:17:01;16.20;99.90
21508;DHT22;10915;54.352;9.074;2023-05-10T07:19:27;16.20;99.90
21508;DHT22;10915;54.352;9.074;2023-05-10T07:21:52;16.30;99.90
21508;DHT22;10915;54.352;9.074;2023-05-10T07:24:18;16.20;99.90
21508;DHT22;10915;54.352;9.074;2023-05-10T07:26:43;16.10;99.90
21508;DHT22;10915;54.352;9.074;2023-05-10T07:29:09;16.20;99.90
21508;DHT22;10915;54.352;9.074;2023-05-10T07:31:35;16.40;99.90
21508;DHT22;10915;54.352;9.074;2023-05-10T07:34:01;16.40;99.90
21508;DHT22;10915;54.352;9.074;2023-05-10T07:36:27;16.50;99.90
21508;DHT22;10915;54.352;9.074;2023-05-10T07:39:06;16.50;99.90
21508;DHT22;10915;54.352;9.074;2023-05-10T07:41:35;16.60;99.90
21508;DHT22;10915;54.352;9.074;2023-05-10T07:44:03;16.60;99.90
21508;DHT22;10915;54.352;9.074;2023-05-10T07:46:29;16.70;99.90
21508;DHT22;10915;54.352;9.074;2023-05-10T07:48:54;16.60;99.90
21508;DHT22;10915;54.352;9.074;2023-05-10T07:51:20;16.60;99.90
21508;DHT22;10915;54.352;9.074;2023-05-10T07:53:46;16.70;99.90
21508;DHT22;10915;54.352;9.074;2023-05-10T07:56:24;16.70;99.90
21508;DHT22;10915;54.352;9.074;2023-05-10T07:58:55;16.90;99.90
21508;DHT22;10915;54.352;9.074;2023-05-10T08:01:22;16.80;99.90
21508;DHT22;10915;54.352;9.074;2023-05-10T08:03:48;16.70;99.90
21508;DHT22;10915;54.352;9.074;2023-05-10T08:06:15;16.80;99.90
21508;DHT22;10915;54.352;9.074;2023-05-10T08:08:41;16.80;99.90
21508;DHT22;10915;54.352;9.074;2023-05-10T08:11:06;16.70;99.90
21508;DHT22;10915;54.352;9.074;2023-05-10T08:13:32;16.70;99.90
21508;DHT22;10915;54.352;9.074;2023-05-10T08:15:58;16.90;99.90
21508;DHT22;10915;54.352;9.074;2023-05-10T08:18:23;17.00;99.90
21508;DHT22;10915;54.352;9.074;2023-05-10T08:20:49;17.00;99.90
21508;DHT22;10915;54.352;9.074;2023-05-10T08:23:15;17.00;99.90
21508;DHT22;10915;54.352;9.074;2023-05-10T08:25:41;17.00;99.90
21508;DHT22;10915;54.352;9.074;2023-05-10T08:28:06;17.00;99.90
21508;DHT22;10915;54.352;9.074;2023-05-10T08:30:32;17.10;99.90
21508;DHT22;10915;54.352;9.074;2023-05-10T08:32:57;17.10;99.90
21508;DHT22;10915;54.352;9.074;2023-05-10T08:35:23;17.00;99.90
21508;DHT22;10915;54.352;9.074;2023-05-10T08:37:50;17.00;99.90
21508;DHT22;10915;54.352;9.074;2023-05-10T08:40:16;17.10;99.90
21508;DHT22;10915;54.352;9.074;2023-05-10T08:42:51;17.10;99.90
21508;DHT22;10915;54.352;9.074;2023-05-10T08:45:20;17.20;99.90
21508;DHT22;10915;54.352;9.074;2023-05-10T08:47:47;17.10;99.90
21508;DHT22;10915;54.352;9.074;2023-05-10T08:50:13;17.20;99.90
21508;DHT22;10915;54.352;9.074;2023-05-10T08:52:40;17.10;99.90
21508;DHT22;10915;54.352;9.074;2023-05-10T08:55:06;17.20;99.90
21508;DHT22;10915;54.352;9.074;2023-05-10T08:57:32;17.20;99.90
21508;DHT22;10915;54.352;9.074;2023-05-10T09:00:00;17.20;99.90
21508;DHT22;10915;54.352;9.074;2023-05-10T09:02:26;17.20;99.90
21508;DHT22;10915;54.352;9.074;2023-05-10T09:04:52;17.10;99.90
21508;DHT22;10915;54.352;9.074;2023-05-10T09:07:18;17.20;99.90
21508;DHT22;10915;54.352;9.074;2023-05-10T09:09:46;17.30;99.90
21508;DHT22;10915;54.352;9.074;2023-05-10T09:12:12;17.30;99.90
21508;DHT22;10915;54.352;9.074;2023-05-10T09:14:38;17.40;99.90
21508;DHT22;10915;54.352;9.074;2023-05-10T09:17:04;17.40;99.90
21508;DHT22;10915;54.352;9.074;2023-05-10T09:19:30;17.40;99.90
21508;DHT22;10915;54.352;9.074;2023-05-10T09:21:56;17.40;99.90
21508;DHT22;10915;54.352;9.074;2023-05-10T09:24:25;17.50;99.90
21508;DHT22;10915;54.352;9.074;2023-05-10T09:26:52;17.70;99.90
21508;DHT22;10915;54.352;9.074;2023-05-10T09:29:18;17.70;99.90
21508;DHT22;10915;54.352;9.074;2023-05-10T09:34:21;17.60;99.90
21508;DHT22;10915;54.352;9.074;2023-05-10T09:36:55;17.70;99.90
21508;DHT22;10915;54.352;9.074;2023-05-10T09:39:30;17.60;99.90
21508;DHT22;10915;54.352;9.074;2023-05-10T09:41:57;17.70;99.90
21508;DHT22;10915;54.352;9.074;2023-05-10T09:44:23;17.70;99.90
21508;DHT22;10915;54.352;9.074;2023-05-10T09:46:49;17.60;99.90
21508;DHT22;10915;54.352;9.074;2023-05-10T09:49:16;17.60;99.90
21508;DHT22;10915;54.352;9.074;2023-05-10T09:51:41;17.50;99.90
21508;DHT22;10915;54.352;9.074;2023-05-10T09:54:12;17.30;99.90
21508;DHT22;10915;54.352;9.074;2023-05-10T09:56:38;17.40;99.90
21508;DHT22;10915;54.352;9.074;2023-05-10T09:59:06;17.30;99.90
21508;DHT22;10915;54.352;9.074;2023-05-10T10:01:33;17.20;99.90
21508;DHT22;10915;54.352;9.074;2023-05-10T10:04:05;17.20;99.90
21508;DHT22;10915;54.352;9.074;2023-05-10T10:06:40;17.10;99.90
21508;DHT22;10915;54.352;9.074;2023-05-10T10:09:07;16.90;99.90
21508;DHT22;10915;54.352;9.074;2023-05-10T10:11:35;16.80;99.90
21508;DHT22;10915;54.352;9.074;2023-05-10T10:14:01;16.70;99.90
21508;DHT22;10915;54.352;9.074;2023-05-10T10:16:30;16.60;99.90
21508;DHT22;10915;54.352;9.074;2023-05-10T10:18:56;16.50;99.90
21508;DHT22;10915;54.352;9.074;2023-05-10T10:21:23;16.30;99.90
21508;DHT22;10915;54.352;9.074;2023-05-10T10:23:48;16.30;99.90
21508;DHT22;10915;54.352;9.074;2023-05-10T10:26:15;16.40;99.90
21508;DHT22;10915;54.352;9.074;2023-05-10T10:31:44;16.40;99.90
21508;DHT22;10915;54.352;9.074;2023-05-10T10:34:26;16.40;99.90
21508;DHT22;10915;54.352;9.074;2023-05-10T10:36:54;16.50;99.90
21508;DHT22;10915;54.352;9.074;2023-05-10T10:39:20;16.50;99.90
21508;DHT22;10915;54.352;9.074;2023-05-10T10:41:50;16.60;99.90
21508;DHT22;10915;54.352;9.074;2023-05-10T10:47:10;16.10;99.90
21508;DHT22;10915;54.352;9.074;2023-05-10T10:52:30;16.10;99.90
21508;DHT22;10915;54.352;9.074;2023-05-10T10:55:05;16.00;99.90
21508;DHT22;10915;54.352;9.074;2023-05-10T10:57:35;16.10;99.90
21508;DHT22;10915;54.352;9.074;2023-05-10T11:00:26;16.00;99.90
21508;DHT22;10915;54.352;9.074;2023-05-10T11:03:09;16.10;99.90
21508;DHT22;10915;54.352;9.074;2023-05-10T11:08:09;16.30;99.90
21508;DHT22;10915;54.352;9.074;2023-05-10T11:10:35;16.10;99.90
21508;DHT22;10915;54.352;9.074;2023-05-10T11:13:08;16.20;99.90
21508;DHT22;10915;54.352;9.074;2023-05-10T11:15:38;16.20;99.90
21508;DHT22;10915;54.352;9.074;2023-05-10T11:18:24;16.10;99.90
21508;DHT22;10915;54.352;9.074;2023-05-10T11:20:56;16.00;99.90
21508;DHT22;10915;54.352;9.074;2023-05-10T11:23:23;16.00;99.90
21508;DHT22;10915;54.352;9.074;2023-05-10T11:25:49;16.00;99.90
21508;DHT22;10915;54.352;9.074;2023-05-10T11:28:17;16.00;99.90
21508;DHT22;10915;54.352;9.074;2023-05-10T11:30:44;15.80;99.90
21508;DHT22;10915;54.352;9.074;2023-05-10T11:33:18;15.90;99.90
21508;DHT22;10915;54.352;9.074;2023-05-10T11:35:45;16.00;99.90
21508;DHT22;10915;54.352;9.074;2023-05-10T11:38:12;16.00;99.90
21508;DHT22;10915;54.352;9.074;2023-05-10T11:40:38;16.00;99.90
21508;DHT22;10915;54.352;9.074;2023-05-10T11:43:04;16.10;99.90
21508;DHT22;10915;54.352;9.074;2023-05-10T11:45:34;16.20;99.90
21508;DHT22;10915;54.352;9.074;2023-05-10T11:48:01;16.20;99.90
21508;DHT22;10915;54.352;9.074;2023-05-10T11:50:27;16.30;99.90
21508;DHT22;10915;54.352;9.074;2023-05-10T11:52:53;16.20;99.90
21508;DHT22;10915;54.352;9.074;2023-05-10T11:55:19;16.20;99.90
21508;DHT22;10915;54.352;9.074;2023-05-10T11:57:45;16.20;99.90
21508;DHT22;10915;54.352;9.074;2023-05-10T12:00:12;16.10;99.90
21508;DHT22;10915;54.352;9.074;2023-05-10T12:02:39;16.00;99.90
21508;DHT22;10915;54.352;9.074;2023-05-10T12:05:05;15.90;99.90
21508;DHT22;10915;54.352;9.074;2023-05-10T12:07:31;15.90;99.90
21508;DHT22;10915;54.352;9.074;2023-05-10T12:12:43;16.10;99.90
21508;DHT22;10915;54.352;9.074;2023-05-10T12:17:44;16.30;99.90
21508;DHT22;10915;54.352;9.074;2023-05-10T12:20:28;16.30;99.90
21508;DHT22;10915;54.352;9.074;2023-05-10T12:22:56;16.50;99.90
21508;DHT22;10915;54.352;9.074;2023-05-10T12:25:23;16.50;99.90
21508;DHT22;10915;54.352;9.074;2023-05-10T12:27:53;16.80;99.90
21508;DHT22;10915;54.352;9.074;2023-05-10T12:30:26;17.10;99.90
21508;DHT22;10915;54.352;9.074;2023-05-10T12:32:53;17.20;99.90
21508;DHT22;10915;54.352;9.074;2023-05-10T12:35:19;17.10;99.90
21508;DHT22;10915;54.352;9.074;2023-05-10T12:37:47;17.00;99.90
21508;DHT22;10915;54.352;9.074;2023-05-10T12:40:13;16.90;99.90
21508;DHT22;10915;54.352;9.074;2023-05-10T12:42:39;16.90;99.90
21508;DHT22;10915;54.352;9.074;2023-05-10T12:45:06;16.80;99.90
21508;DHT22;10915;54.352;9.074;2023-05-10T12:47:32;16.80;99.90
21508;DHT22;10915;54.352;9.074;2023-05-10T12:49:59;16.90;99.90
21508;DHT22;10915;54.352;9.074;2023-05-10T12:52:26;17.00;99.90
21508;DHT22;10915;54.352;9.074;2023-05-10T12:54:52;17.10;99.90
21508;DHT22;10915;54.352;9.074;2023-05-10T12:57:20;16.90;99.90
21508;DHT22;10915;54.352;9.074;2023-05-10T12:59:45;16.70;99.90
21508;DHT22;10915;54.352;9.074;2023-05-10T13:02:11;16.50;99.90
21508;DHT22;10915;54.352;9.074;2023-05-10T13:04:37;16.50;99.90
21508;DHT22;10915;54.352;9.074;2023-05-10T13:07:08;16.50;99.90
21508;DHT22;10915;54.352;9.074;2023-05-10T13:09:34;16.50;99.90
21508;DHT22;10915;54.352;9.074;2023-05-10T13:12:00;16.50;99.90
21508;DHT22;10915;54.352;9.074;2023-05-10T13:14:26;16.50;99.90
21508;DHT22;10915;54.352;9.074;2023-05-10T13:16:52;16.40;99.90
21508;DHT22;10915;54.352;9.074;2023-05-10T13:19:17;16.30;99.90
21508;DHT22;10915;54.352;9.074;2023-05-10T13:21:43;16.30;99.90
21508;DHT22;10915;54.352;9.074;2023-05-10T13:24:12;16.30;99.90
21508;DHT22;10915;54.352;9.074;2023-05-10T13:26:39;16.30;99.90
21508;DHT22;10915;54.352;9.074;2023-05-10T13:29:06;16.30;99.90
21508;DHT22;10915;54.352;9.074;2023-05-10T13:31:31;16.30;99.90
21508;DHT22;10915;54.352;9.074;2023-05-10T13:33:57;16.30;99.90
21508;DHT22;10915;54.352;9.074;2023-05-10T13:36:22;16.30;99.90
21508;DHT22;10915;54.352;9.074;2023-05-10T13:38:48;16.10;99.90
21508;DHT22;10915;54.352;9.074;2023-05-10T13:41:14;16.10;99.90
21508;DHT22;10915;54.352;9.074;2023-05-10T13:43:39;16.10;99.90
21508;DHT22;10915;54.352;9.074;2023-05-10T13:46:05;16.10;99.90
21508;DHT22;10915;54.352;9.074;2023-05-10T13:48:31;16.10;99.90
21508;DHT22;10915;54.352;9.074;2023-05-10T13:50:56;16.10;99.90
21508;DHT22;10915;54.352;9.074;2023-05-10T13:53:22;16.00;99.90
21508;DHT22;10915;54.352;9.074;2023-05-10T13:55:49;16.10;99.90
21508;DHT22;10915;54.352;9.074;2023-05-10T13:58:15;16.20;99.90
21508;DHT22;10915;54.352;9.074;2023-05-10T14:00:40;16.20;99.90
21508;DHT22;10915;54.352;9.074;2023-05-10T14:03:06;16.30;99.90
21508;DHT22;10915;54.352;9.074;2023-05-10T14:05:32;16.30;99.90
21508;DHT22;10915;54.352;9.074;2023-05-10T14:07:58;16.30;99.90
21508;DHT22;10915;54.352;9.074;2023-05-10T14:10:24;16.30;99.90
21508;DHT22;10915;54.352;9.074;2023-05-10T14:12:50;16.20;99.90
21508;DHT22;10915;54.352;9.074;2023-05-10T14:15:16;16.20;99.90
21508;DHT22;10915;54.352;9.074;2023-05-10T14:17:41;16.20;99.90
21508;DHT22;10915;54.352;9.074;2023-05-10T14:20:07;16.30;99.90
21508;DHT22;10915;54.352;9.074;2023-05-10T14:22:34;16.30;99.90
21508;DHT22;10915;54.352;9.074;2023-05-10T14:24:59;16.20;99.90
21508;DHT22;10915;54.352;9.074;2023-05-10T14:27:25;16.30;99.90
21508;DHT22;10915;54.352;9.074;2023-05-10T14:29:51;16.40;99.90
21508;DHT22;10915;54.352;9.074;2023-05-10T14:32:17;16.60;99.90
21508;DHT22;10915;54.352;9.074;2023-05-10T14:34:42;16.70;99.90
21508;DHT22;10915;54.352;9.074;2023-05-10T14:37:10;16.80;99.90
21508;DHT22;10915;54.352;9.074;2023-05-10T14:39:36;16.80;99.90
21508;DHT22;10915;54.352;9.074;2023-05-10T14:42:03;16.90;99.90
21508;DHT22;10915;54.352;9.074;2023-05-10T14:44:28;16.90;99.90
21508;DHT22;10915;54.352;9.074;2023-05-10T14:46:54;16.90;99.90
21508;DHT22;10915;54.352;9.074;2023-05-10T14:49:21;16.90;99.90
21508;DHT22;10915;54.352;9.074;2023-05-10T14:51:48;16.90;99.90
21508;DHT22;10915;54.352;9.074;2023-05-10T14:54:13;16.90;99.90
21508;DHT22;10915;54.352;9.074;2023-05-10T14:56:39;16.80;99.90
21508;DHT22;10915;54.352;9.074;2023-05-10T14:59:06;16.70;99.90
21508;DHT22;10915;54.352;9.074;2023-05-10T15:01:32;16.70;99.90
21508;DHT22;10915;54.352;9.074;2023-05-10T15:03:59;16.70;99.90
21508;DHT22;10915;54.352;9.074;2023-05-10T15:06:31;16.70;99.90
21508;DHT22;10915;54.352;9.074;2023-05-10T15:08:57;16.70;99.90
21508;DHT22;10915;54.352;9.074;2023-05-10T15:11:23;16.70;99.90
21508;DHT22;10915;54.352;9.074;2023-05-10T15:13:48;16.60;99.90
21508;DHT22;10915;54.352;9.074;2023-05-10T15:16:14;16.50;99.90
21508;DHT22;10915;54.352;9.074;2023-05-10T15:18:39;16.60;99.90
21508;DHT22;10915;54.352;9.074;2023-05-10T15:21:05;16.60;99.90
21508;DHT22;10915;54.352;9.074;2023-05-10T15:23:30;16.70;99.90
21508;DHT22;10915;54.352;9.074;2023-05-10T15:25:57;16.70;99.90
21508;DHT22;10915;54.352;9.074;2023-05-10T15:28:22;16.70;99.90
21508;DHT22;10915;54.352;9.074;2023-05-10T15:30:48;16.70;99.90
21508;DHT22;10915;54.352;9.074;2023-05-10T15:33:14;16.80;99.90
21508;DHT22;10915;54.352;9.074;2023-05-10T15:35:40;16.80;99.90
21508;DHT22;10915;54.352;9.074;2023-05-10T15:38:06;16.80;99.90
21508;DHT22;10915;54.352;9.074;2023-05-10T15:40:32;16.80;99.90
21508;DHT22;10915;54.352;9.074;2023-05-10T15:42:58;16.80;99.90
21508;DHT22;10915;54.352;9.074;2023-05-10T15:45:23;16.90;99.90
21508;DHT22;10915;54.352;9.074;2023-05-10T15:47:49;16.90;99.90
21508;DHT22;10915;54.352;9.074;2023-05-10T15:50:15;17.00;99.90
21508;DHT22;10915;54.352;9.074;2023-05-10T15:52:41;17.00;99.90
21508;DHT22;10915;54.352;9.074;2023-05-10T15:55:08;16.90;99.90
21508;DHT22;10915;54.352;9.074;2023-05-10T15:57:40;16.90;99.90
21508;DHT22;10915;54.352;9.074;2023-05-10T16:00:08;16.70;99.90
21508;DHT22;10915;54.352;9.074;2023-05-10T16:02:34;16.70;99.90
21508;DHT22;10915;54.352;9.074;2023-05-10T16:05:00;16.80;99.90
21508;DHT22;10915;54.352;9.074;2023-05-10T16:07:25;16.70;99.90
21508;DHT22;10915;54.352;9.074;2023-05-10T16:09:51;16.60;99.90
21508;DHT22;10915;54.352;9.074;2023-05-10T16:12:17;16.60;99.90